createdAt,value
2019-05-09T00:02:13.799Z,99.90
2019-05-09T00:04:40.051Z,99.90
2019-05-09T00:07:06.124Z,99.90
2019-05-09T00:09:33.565Z,99.90
2019-05-09T00:11:59.999Z,99.90
2019-05-09T00:14:26.435Z,99.90
2019-05-09T00:16:53.118Z,99.90
2019-05-09T00:19:19.823Z,99.90
2019-05-09T00:21:54.146Z,99.90
2019-05-09T00:24:20.415Z,99.90
2019-05-09T00:26:46.762Z,99.90
2019-05-09T00:29:20.619Z,99.90
2019-05-09T00:31:54.482Z,99.90
2019-05-09T00:34:39.119Z,99.90
2019-05-09T00:37:05.357Z,99.90
2019-05-09T00:39:31.544Z,99.90
2019-05-09T00:41:57.709Z,99.90
2019-05-09T00:44:28.989Z,99.90
2019-05-09T00:47:09.464Z,99.90
2019-05-09T00:49:35.812Z,99.90
2019-05-09T00:52:03.518Z,99.90
2019-05-09T00:54:33.353Z,99.90
2019-05-09T00:56:59.023Z,99.90
2019-05-09T00:59:25.303Z,99.90
2019-05-09T01:01:51.498Z,99.90
2019-05-09T01:04:17.547Z,99.90
2019-05-09T01:06:43.739Z,99.70
2019-05-09T01:09:09.796Z,99.60
2019-05-09T01:11:35.836Z,99.70
2019-05-09T01:14:03.635Z,99.50
2019-05-09T01:16:29.937Z,99.50
2019-05-09T01:18:56.372Z,99.30
2019-05-09T01:21:23.990Z,99.50
2019-05-09T01:23:50.328Z,99.20
2019-05-09T01:26:16.339Z,99.30
2019-05-09T01:28:44.264Z,99.20
2019-05-09T01:31:10.386Z,99.30
2019-05-09T01:33:50.271Z,99.20
2019-05-09T01:36:16.410Z,99.20
2019-05-09T01:38:43.323Z,99.30
2019-05-09T01:41:22.850Z,99.60
2019-05-09T01:43:37.462Z,99.50
2019-05-09T01:46:04.041Z,99.50
2019-05-09T01:48:31.236Z,99.40
2019-05-09T01:50:57.247Z,99.40
2019-05-09T01:53:25.184Z,99.60
2019-05-09T01:55:57.186Z,99.60
2019-05-09T01:58:23.548Z,99.60
2019-05-09T02:00:49.690Z,99.60
2019-05-09T02:03:15.839Z,99.50
2019-05-09T02:05:43.483Z,99.90
2019-05-09T02:08:09.739Z,99.60
2019-05-09T02:10:35.799Z,99.90
2019-05-09T02:13:03.115Z,99.70
2019-05-09T02:15:31.171Z,99.50
2019-05-09T02:18:05.389Z,99.30
2019-05-09T02:20:32.860Z,99.50
2019-05-09T02:22:59.770Z,99.30
2019-05-09T02:25:25.780Z,99.40
2019-05-09T02:27:51.807Z,99.40
2019-05-09T02:30:18.080Z,99.60
2019-05-09T02:32:44.972Z,99.70
2019-05-09T02:35:11.626Z,99.80
2019-05-09T02:37:38.905Z,99.80
2019-05-09T02:40:09.221Z,99.90
2019-05-09T02:42:34.019Z,99.80
2019-05-09T02:45:00.043Z,99.80
2019-05-09T02:47:28.983Z,99.60
2019-05-09T02:49:54.735Z,99.90
2019-05-09T02:52:20.809Z,99.90
2019-05-09T02:54:49.971Z,99.90
2019-05-09T02:57:14.742Z,99.90
2019-05-09T02:59:42.871Z,99.90
2019-05-09T03:02:13.906Z,99.90
2019-05-09T03:04:40.050Z,99.90
2019-05-09T03:07:09.449Z,99.90
2019-05-09T03:09:34.919Z,99.90
2019-05-09T03:12:21.307Z,99.90
2019-05-09T03:14:29.488Z,99.90
2019-05-09T03:16:58.346Z,99.90
2019-05-09T03:19:24.011Z,99.90
2019-05-09T03:21:52.394Z,99.90
2019-05-09T03:24:18.791Z,99.90
2019-05-09T03:26:49.400Z,99.90
2019-05-09T03:29:19.826Z,99.90
2019-05-09T03:31:49.739Z,99.90
2019-05-09T03:34:14.717Z,99.90
2019-05-09T03:36:40.995Z,99.90
2019-05-09T03:39:08.165Z,99.90
2019-05-09T03:41:34.979Z,99.90
2019-05-09T03:44:01.127Z,99.90
2019-05-09T03:46:29.443Z,99.90
2019-05-09T03:49:03.570Z,99.90
2019-05-09T03:51:29.711Z,99.90
2019-05-09T03:53:57.589Z,99.90
2019-05-09T03:56:27.381Z,99.90
2019-05-09T03:58:54.716Z,99.90
2019-05-09T04:01:20.878Z,99.90
2019-05-09T04:03:48.138Z,99.90
2019-05-09T04:06:14.463Z,99.90
2019-05-09T04:08:40.605Z,99.90
2019-05-09T04:11:08.589Z,99.90
2019-05-09T04:13:38.492Z,99.90
2019-05-09T04:16:07.380Z,99.90
2019-05-09T04:18:33.450Z,99.90
2019-05-09T04:21:00.387Z,99.90
2019-05-09T04:23:27.528Z,99.90
2019-05-09T04:25:58.176Z,99.90
2019-05-09T04:28:24.167Z,99.90
2019-05-09T04:30:50.320Z,99.90
2019-05-09T04:33:17.720Z,99.90
2019-05-09T04:35:44.415Z,99.90
2019-05-09T04:38:10.593Z,99.90
2019-05-09T04:40:37.658Z,99.90
2019-05-09T04:43:11.903Z,99.90
2019-05-09T04:45:47.358Z,99.90
2019-05-09T04:48:29.672Z,99.90
2019-05-09T04:50:57.410Z,99.90
2019-05-09T04:53:24.160Z,99.90
2019-05-09T04:55:50.321Z,99.90
2019-05-09T04:58:19.139Z,99.90
2019-05-09T05:01:03.119Z,99.90
2019-05-09T05:03:29.126Z,99.90
2019-05-09T05:05:55.210Z,99.90
2019-05-09T05:08:21.211Z,99.90
2019-05-09T05:10:47.781Z,99.90
2019-05-09T05:13:25.656Z,99.90
2019-05-09T05:15:41.803Z,99.90
2019-05-09T05:18:08.618Z,99.90
2019-05-09T05:20:35.224Z,99.90
2019-05-09T05:23:03.492Z,99.90
2019-05-09T05:25:29.521Z,99.90
2019-05-09T05:27:57.921Z,99.90
2019-05-09T05:30:23.495Z,99.80
2019-05-09T05:32:54.643Z,99.00
2019-05-09T05:35:51.706Z,99.40
2019-05-09T05:38:21.367Z,99.20
2019-05-09T05:40:49.705Z,99.20
2019-05-09T05:43:17.404Z,98.70
2019-05-09T05:45:47.824Z,99.00
2019-05-09T05:48:17.498Z,99.00
2019-05-09T05:50:44.007Z,99.20
2019-05-09T05:53:10.026Z,98.90
2019-05-09T05:55:37.980Z,99.10
2019-05-09T05:58:04.534Z,98.70
2019-05-09T06:00:30.718Z,98.70
2019-05-09T06:02:58.641Z,98.10
2019-05-09T06:05:27.645Z,97.40
2019-05-09T06:07:53.248Z,97.10
2019-05-09T06:10:19.863Z,96.30
2019-05-09T06:12:48.200Z,96.00
2019-05-09T06:15:14.739Z,96.00
2019-05-09T06:17:40.903Z,95.60
2019-05-09T06:20:09.010Z,95.50
2019-05-09T06:22:35.427Z,95.00
2019-05-09T06:25:01.705Z,95.00
2019-05-09T06:27:27.891Z,95.30
2019-05-09T06:29:53.923Z,94.70
2019-05-09T06:32:20.070Z,94.00
2019-05-09T06:34:47.741Z,93.30
2019-05-09T06:37:14.334Z,91.80
2019-05-09T06:39:40.575Z,91.70
2019-05-09T06:42:08.870Z,91.50
2019-05-09T06:44:47.839Z,91.30
2019-05-09T06:47:24.396Z,90.50
2019-05-09T06:49:52.462Z,90.40
2019-05-09T06:52:18.614Z,91.10
2019-05-09T06:54:45.063Z,90.30
2019-05-09T06:57:11.277Z,88.80
2019-05-09T06:59:38.133Z,89.50
2019-05-09T07:02:08.258Z,89.50
2019-05-09T07:04:39.546Z,86.40
2019-05-09T07:07:08.131Z,84.50
2019-05-09T07:09:48.346Z,84.10
2019-05-09T07:12:14.494Z,85.20
2019-05-09T07:14:41.899Z,85.50
2019-05-09T07:17:08.620Z,86.70
2019-05-09T07:19:34.892Z,87.00
2019-05-09T07:22:05.815Z,86.30
2019-05-09T07:24:33.983Z,85.70
2019-05-09T07:27:00.265Z,84.10
2019-05-09T07:29:28.634Z,80.90
2019-05-09T07:32:08.646Z,81.40
2019-05-09T07:34:40.470Z,80.10
2019-05-09T07:37:08.369Z,79.40
2019-05-09T07:39:34.979Z,79.40
2019-05-09T07:42:00.997Z,78.70
2019-05-09T07:44:33.128Z,78.10
2019-05-09T07:46:58.051Z,79.00
2019-05-09T07:49:24.801Z,78.00
2019-05-09T07:51:50.965Z,75.20
2019-05-09T07:54:24.871Z,77.00
2019-05-09T07:56:45.158Z,77.30
2019-05-09T07:59:11.303Z,76.00
2019-05-09T08:01:38.439Z,78.10
2019-05-09T08:04:07.554Z,76.50
2019-05-09T08:06:33.750Z,75.00
2019-05-09T08:08:59.898Z,75.00
2019-05-09T08:11:28.275Z,73.10
2019-05-09T08:13:54.094Z,73.10
2019-05-09T08:16:20.664Z,73.00
2019-05-09T08:18:48.306Z,71.20
2019-05-09T08:21:14.700Z,72.20
2019-05-09T08:23:40.954Z,71.70
2019-05-09T08:26:08.781Z,71.90
2019-05-09T08:28:35.409Z,72.20
2019-05-09T08:31:01.571Z,73.10
2019-05-09T08:33:28.782Z,71.50
2019-05-09T08:35:55.073Z,71.60
2019-05-09T08:38:21.202Z,70.60
2019-05-09T08:40:49.300Z,70.30
2019-05-09T08:43:19.535Z,69.20
2019-05-09T08:45:43.703Z,70.20
2019-05-09T08:48:09.867Z,69.00
2019-05-09T08:50:41.010Z,68.20
2019-05-09T08:53:08.216Z,68.50
2019-05-09T08:55:34.661Z,68.80
2019-05-09T08:58:00.796Z,68.60
2019-05-09T09:00:28.180Z,70.50
2019-05-09T09:02:54.533Z,73.80
2019-05-09T09:05:20.688Z,74.80
2019-05-09T09:07:49.005Z,74.50
2019-05-09T09:10:18.680Z,75.20
2019-05-09T09:12:44.402Z,73.40
2019-05-09T09:15:11.522Z,74.60
2019-05-09T09:17:38.537Z,75.80
2019-05-09T09:20:07.666Z,75.10
2019-05-09T09:22:34.311Z,77.80
2019-05-09T09:25:00.483Z,75.80
2019-05-09T09:27:27.789Z,75.10
2019-05-09T09:29:54.020Z,75.30
2019-05-09T09:32:20.174Z,76.00
2019-05-09T09:34:48.523Z,74.50
2019-05-09T09:37:14.364Z,72.40
2019-05-09T09:39:44.441Z,71.00
2019-05-09T09:42:09.208Z,71.00
2019-05-09T09:44:35.482Z,70.60
2019-05-09T09:47:01.639Z,71.10
2019-05-09T09:49:29.282Z,69.20
2019-05-09T09:51:58.165Z,70.80
2019-05-09T09:54:24.053Z,69.90
2019-05-09T09:56:52.328Z,68.90
2019-05-09T09:59:40.982Z,70.40
2019-05-09T10:02:10.264Z,71.70
2019-05-09T10:04:37.528Z,71.80
2019-05-09T10:07:03.811Z,72.00
2019-05-09T10:09:29.947Z,69.40
2019-05-09T10:11:59.874Z,68.40
2019-05-09T10:14:28.348Z,68.60
2019-05-09T10:17:10.954Z,69.40
2019-05-09T10:19:38.979Z,67.00
2019-05-09T10:22:08.446Z,69.00
2019-05-09T10:24:34.674Z,70.00
2019-05-09T10:27:09.187Z,71.60
2019-05-09T10:29:35.583Z,71.40
2019-05-09T10:32:03.548Z,71.20
2019-05-09T10:34:29.679Z,67.40
2019-05-09T10:36:58.308Z,68.10
2019-05-09T10:39:24.765Z,69.30
2019-05-09T10:41:51.227Z,66.40
2019-05-09T10:44:19.509Z,67.70
2019-05-09T10:46:57.618Z,68.40
2019-05-09T10:49:21.448Z,68.00
2019-05-09T10:51:48.526Z,69.50
2019-05-09T10:54:14.852Z,67.70
2019-05-09T10:56:41.320Z,68.20
2019-05-09T10:59:07.978Z,68.80
2019-05-09T11:01:34.244Z,69.90
2019-05-09T11:04:00.626Z,70.30
2019-05-09T11:06:28.729Z,71.20
2019-05-09T11:08:54.845Z,70.70
2019-05-09T11:11:21.038Z,68.70
2019-05-09T11:13:48.162Z,68.60
2019-05-09T11:16:15.071Z,68.60
2019-05-09T11:18:41.474Z,69.20
2019-05-09T11:21:08.355Z,69.20
2019-05-09T11:23:34.979Z,70.70
2019-05-09T11:26:01.004Z,68.90
2019-05-09T11:28:28.524Z,69.10
2019-05-09T11:30:54.828Z,69.10
2019-05-09T11:33:21.210Z,68.90
2019-05-09T11:35:47.998Z,69.80
2019-05-09T11:38:14.343Z,70.70
2019-05-09T11:40:40.576Z,72.00
2019-05-09T11:43:06.723Z,72.40
2019-05-09T11:45:32.883Z,72.30
2019-05-09T11:47:59.657Z,72.90
2019-05-09T11:50:25.806Z,73.60
2019-05-09T11:52:51.993Z,71.70
2019-05-09T11:55:29.644Z,71.10
2019-05-09T11:57:48.482Z,70.70
2019-05-09T12:00:15.197Z,71.50
2019-05-09T12:02:41.351Z,72.50
2019-05-09T12:05:08.759Z,72.10
2019-05-09T12:07:37.788Z,71.50
2019-05-09T12:10:07.885Z,72.00
2019-05-09T12:12:34.293Z,70.60
2019-05-09T12:15:00.675Z,71.30
2019-05-09T12:17:31.215Z,71.70
2019-05-09T12:20:09.027Z,72.30
2019-05-09T12:22:23.022Z,70.60
2019-05-09T12:24:49.173Z,70.50
2019-05-09T12:27:15.355Z,70.20
2019-05-09T12:29:41.685Z,69.90
2019-05-09T12:32:08.748Z,69.40
2019-05-09T12:34:35.440Z,68.50
2019-05-09T12:37:01.591Z,68.90
2019-05-09T12:39:27.750Z,67.80
2019-05-09T12:41:54.908Z,68.90
2019-05-09T12:44:24.818Z,69.50
2019-05-09T12:46:49.131Z,67.20
2019-05-09T12:49:18.686Z,68.10
2019-05-09T12:51:44.329Z,68.40
2019-05-09T12:54:10.485Z,68.70
2019-05-09T12:56:38.523Z,68.30
2019-05-09T12:59:04.829Z,69.60
2019-05-09T13:01:30.971Z,69.90
2019-05-09T13:03:58.335Z,68.20
2019-05-09T13:06:24.762Z,68.50
2019-05-09T13:08:50.946Z,67.50
2019-05-09T13:11:18.752Z,68.30
2019-05-09T13:13:47.753Z,67.60
2019-05-09T13:16:23.844Z,67.50
2019-05-09T13:19:04.042Z,68.90
2019-05-09T13:21:32.971Z,69.50
2019-05-09T13:23:58.877Z,68.20
2019-05-09T13:26:25.234Z,67.30
2019-05-09T13:28:51.397Z,67.20
2019-05-09T13:31:18.195Z,68.20
2019-05-09T13:33:44.817Z,67.90
2019-05-09T13:36:10.975Z,66.70
2019-05-09T13:38:37.831Z,67.60
2019-05-09T13:41:08.399Z,66.00
2019-05-09T13:43:33.520Z,67.80
2019-05-09T13:45:59.643Z,66.30
2019-05-09T13:48:39.737Z,65.40
2019-05-09T13:50:54.123Z,65.50
2019-05-09T13:53:20.289Z,67.80
2019-05-09T13:55:48.063Z,68.90
2019-05-09T13:58:14.330Z,66.60
2019-05-09T14:00:55.444Z,67.50
2019-05-09T14:03:08.522Z,67.60
2019-05-09T14:05:34.887Z,68.40
2019-05-09T14:08:03.417Z,67.80
2019-05-09T14:10:29.168Z,67.80
2019-05-09T14:13:08.903Z,67.90
2019-05-09T14:15:27.375Z,69.20
2019-05-09T14:17:54.037Z,70.10
2019-05-09T14:20:20.479Z,70.80
2019-05-09T14:22:49.023Z,72.00
2019-05-09T14:25:15.125Z,73.10
2019-05-09T14:27:41.491Z,73.30
2019-05-09T14:30:08.262Z,72.30
2019-05-09T14:32:35.042Z,71.60
2019-05-09T14:35:03.056Z,70.60
2019-05-09T14:37:29.305Z,70.90
2019-05-09T14:39:58.852Z,70.70
2019-05-09T14:42:23.527Z,69.60
2019-05-09T14:44:49.892Z,70.10
2019-05-09T14:47:17.737Z,71.20
2019-05-09T14:49:44.756Z,68.70
2019-05-09T14:52:11.070Z,68.80
2019-05-09T14:54:39.186Z,69.60
2019-05-09T14:57:05.368Z,69.30
2019-05-09T14:59:31.843Z,69.60
2019-05-09T15:01:59.071Z,69.00
2019-05-09T15:04:27.747Z,70.50
2019-05-09T15:06:53.646Z,70.10
2019-05-09T15:09:20.084Z,69.50
2019-05-09T15:11:48.373Z,68.70
2019-05-09T15:14:14.279Z,68.50
2019-05-09T15:16:41.164Z,68.60
2019-05-09T15:19:08.423Z,69.10
2019-05-09T15:21:37.976Z,68.20
2019-05-09T15:24:03.239Z,68.60
2019-05-09T15:26:29.394Z,68.20
2019-05-09T15:28:57.865Z,66.20
2019-05-09T15:31:23.849Z,67.20
2019-05-09T15:33:50.292Z,68.20
2019-05-09T15:36:19.000Z,67.90
2019-05-09T15:38:44.484Z,69.90
2019-05-09T15:41:12.263Z,69.60
2019-05-09T15:43:38.549Z,68.90
2019-05-09T15:46:08.418Z,68.30
2019-05-09T15:48:34.903Z,66.10
2019-05-09T15:51:01.066Z,66.80
2019-05-09T15:53:27.825Z,67.70
2019-05-09T15:55:55.403Z,65.80
2019-05-09T15:58:21.686Z,65.70
2019-05-09T16:00:47.973Z,67.30
2019-05-09T16:03:14.466Z,68.60
2019-05-09T16:05:40.844Z,68.30
2019-05-09T16:08:09.147Z,67.20
2019-05-09T16:10:37.375Z,67.40
2019-05-09T16:13:03.532Z,65.10
2019-05-09T16:15:29.759Z,67.10
2019-05-09T16:17:56.254Z,67.80
2019-05-09T16:20:37.117Z,66.60
2019-05-09T16:22:51.555Z,66.50
2019-05-09T16:25:18.824Z,67.90
2019-05-09T16:27:45.271Z,67.90
2019-05-09T16:30:12.746Z,69.10
2019-05-09T16:32:38.885Z,68.50
2019-05-09T16:35:07.751Z,67.70
2019-05-09T16:37:52.933Z,68.00
2019-05-09T16:40:03.650Z,69.30
2019-05-09T16:42:29.803Z,69.80
2019-05-09T16:44:59.167Z,71.00
2019-05-09T16:47:24.515Z,70.70
2019-05-09T16:49:50.674Z,70.70
2019-05-09T16:52:17.954Z,70.10
2019-05-09T16:54:49.769Z,70.50
2019-05-09T16:57:14.388Z,71.20
2019-05-09T16:59:40.640Z,72.00
2019-05-09T17:02:19.045Z,72.40
2019-05-09T17:04:38.467Z,72.90
2019-05-09T17:07:04.269Z,72.80
2019-05-09T17:09:30.923Z,76.60
2019-05-09T17:11:57.662Z,76.50
2019-05-09T17:14:28.344Z,78.80
2019-05-09T17:16:53.605Z,79.20
2019-05-09T17:19:19.761Z,82.20
2019-05-09T17:21:48.226Z,83.20
2019-05-09T17:24:16.392Z,86.40
2019-05-09T17:26:43.725Z,90.40
2019-05-09T17:29:09.990Z,90.00
2019-05-09T17:31:38.361Z,87.90
2019-05-09T17:34:04.442Z,88.50
2019-05-09T17:36:31.025Z,89.70
2019-05-09T17:38:57.412Z,88.60
2019-05-09T17:41:23.836Z,90.10
2019-05-09T17:43:50.455Z,89.80
2019-05-09T17:46:18.944Z,90.80
2019-05-09T17:48:44.753Z,92.10
2019-05-09T17:51:11.150Z,91.10
2019-05-09T17:53:37.341Z,91.50
2019-05-09T17:56:03.675Z,91.20
2019-05-09T17:58:33.242Z,88.00
2019-05-09T18:00:58.054Z,90.60
2019-05-09T18:03:24.347Z,91.40
2019-05-09T18:05:50.495Z,89.40
2019-05-09T18:08:18.727Z,88.50
2019-05-09T18:10:44.762Z,91.20
2019-05-09T18:13:10.898Z,90.60
2019-05-09T18:15:37.700Z,90.20
2019-05-09T18:18:04.191Z,90.70
2019-05-09T18:20:30.761Z,90.80
2019-05-09T18:22:58.595Z,91.50
2019-05-09T18:25:25.009Z,91.80
2019-05-09T18:27:52.005Z,90.70
2019-05-09T18:30:18.732Z,91.00
2019-05-09T18:32:47.635Z,89.40
2019-05-09T18:35:16.190Z,88.70
2019-05-09T18:37:42.335Z,88.80
2019-05-09T18:40:10.496Z,88.80
2019-05-09T18:42:36.649Z,89.20
2019-05-09T18:45:05.122Z,88.40
2019-05-09T18:47:31.507Z,88.30
2019-05-09T18:49:57.667Z,89.30
2019-05-09T18:52:23.794Z,86.60
2019-05-09T18:54:50.040Z,88.30
2019-05-09T18:57:16.173Z,87.80
2019-05-09T18:59:42.670Z,90.50
2019-05-09T19:02:08.916Z,90.80
2019-05-09T19:04:35.351Z,91.20
2019-05-09T19:07:01.527Z,92.00
2019-05-09T19:09:27.714Z,93.00
2019-05-09T19:11:54.015Z,93.40
2019-05-09T19:14:22.260Z,93.10
2019-05-09T19:17:07.016Z,94.20
2019-05-09T19:19:37.844Z,94.20
2019-05-09T19:22:20.434Z,94.90
2019-05-09T19:24:33.663Z,95.50
2019-05-09T19:27:00.133Z,95.50
2019-05-09T19:29:26.332Z,95.50
2019-05-09T19:31:52.771Z,95.90
2019-05-09T19:34:18.930Z,95.90
2019-05-09T19:36:45.104Z,96.70
2019-05-09T19:39:11.548Z,96.50
2019-05-09T19:41:37.819Z,97.10
2019-05-09T19:44:04.161Z,96.40
2019-05-09T19:46:30.467Z,96.20
2019-05-09T19:48:56.907Z,96.70
2019-05-09T19:51:23.181Z,97.30
2019-05-09T19:53:49.331Z,96.80
2019-05-09T19:56:16.589Z,97.30
2019-05-09T19:58:43.042Z,96.80
2019-05-09T20:01:09.281Z,97.30
2019-05-09T20:03:36.424Z,97.00
2019-05-09T20:06:02.951Z,98.50
2019-05-09T20:08:29.102Z,96.90
2019-05-09T20:10:59.916Z,96.80
2019-05-09T20:13:30.743Z,97.70
2019-05-09T20:15:56.882Z,97.00
2019-05-09T20:18:23.307Z,97.40
2019-05-09T20:20:49.535Z,97.50
2019-05-09T20:23:15.696Z,97.90
2019-05-09T20:25:42.090Z,98.60
2019-05-09T20:28:08.347Z,97.80
2019-05-09T20:30:34.515Z,97.50
2019-05-09T20:33:00.684Z,97.30
2019-05-09T20:35:27.165Z,97.70
2019-05-09T20:37:54.431Z,98.00
2019-05-09T20:40:20.918Z,98.60
2019-05-09T20:42:48.610Z,98.00
2019-05-09T20:45:18.443Z,98.40
2019-05-09T20:47:44.730Z,98.20
2019-05-09T20:50:11.276Z,98.40
2019-05-09T20:52:37.514Z,98.90
2019-05-09T20:55:04.290Z,99.10
2019-05-09T20:57:30.631Z,99.00
2019-05-09T20:59:56.892Z,99.20
2019-05-09T21:02:23.143Z,99.60
2019-05-09T21:04:49.315Z,99.00
2019-05-09T21:07:15.862Z,98.50
2019-05-09T21:09:42.108Z,99.30
2019-05-09T21:12:11.125Z,99.80
2019-05-09T21:14:36.310Z,99.30
2019-05-09T21:17:02.763Z,99.40
2019-05-09T21:19:29.003Z,99.20
2019-05-09T21:21:55.364Z,98.60
2019-05-09T21:24:21.528Z,99.60
2019-05-09T21:26:47.677Z,99.60
2019-05-09T21:29:13.824Z,99.90
2019-05-09T21:31:39.967Z,99.80
2019-05-09T21:34:06.120Z,99.90
2019-05-09T21:36:32.660Z,99.80
2019-05-09T21:38:58.837Z,99.30
2019-05-09T21:41:24.960Z,99.60
2019-05-09T21:43:51.124Z,99.50
2019-05-09T21:46:17.273Z,99.90
2019-05-09T21:48:43.516Z,99.90
2019-05-09T21:51:09.660Z,99.90
2019-05-09T21:53:40.996Z,99.90
2019-05-09T21:56:04.329Z,99.30
2019-05-09T21:58:30.466Z,99.90
2019-05-09T22:00:57.629Z,99.80
2019-05-09T22:03:25.188Z,99.90
2019-05-09T22:05:52.534Z,99.90
2019-05-09T22:08:18.681Z,99.90
2019-05-09T22:10:44.827Z,99.90
2019-05-09T22:13:12.095Z,99.90
2019-05-09T22:15:39.389Z,99.90
2019-05-09T22:18:05.518Z,99.70
2019-05-09T22:20:32.117Z,99.60
2019-05-09T22:22:58.356Z,99.90
2019-05-09T22:25:24.540Z,98.90
2019-05-09T22:27:51.153Z,99.20
2019-05-09T22:30:18.416Z,99.00
2019-05-09T22:32:44.666Z,99.20
2019-05-09T22:35:11.703Z,99.40
2019-05-09T22:37:38.040Z,98.70
2019-05-09T22:40:05.787Z,98.90
2019-05-09T22:42:31.934Z,99.30
2019-05-09T22:44:58.100Z,98.80
2019-05-09T22:47:24.245Z,99.00
2019-05-09T22:49:52.751Z,98.60
2019-05-09T22:52:18.654Z,98.80
2019-05-09T22:54:45.127Z,98.60
2019-05-09T22:57:11.306Z,98.50
2019-05-09T22:59:37.481Z,98.70
2019-05-09T23:02:06.831Z,98.40
2019-05-09T23:04:31.779Z,98.20
2019-05-09T23:06:57.944Z,97.80
2019-05-09T23:09:24.080Z,98.10
2019-05-09T23:11:50.605Z,97.80
2019-05-09T23:14:16.746Z,97.50
2019-05-09T23:16:42.912Z,97.60
2019-05-09T23:19:09.303Z,97.90
2019-05-09T23:21:35.450Z,98.00
2019-05-09T23:24:09.659Z,97.70
2019-05-09T23:26:35.928Z,97.40
2019-05-09T23:29:02.370Z,97.80
2019-05-09T23:31:42.560Z,98.20
2019-05-09T23:34:08.704Z,98.30
2019-05-09T23:36:35.077Z,98.20
2019-05-09T23:39:09.401Z,98.40
2019-05-09T23:41:35.534Z,98.00
2019-05-09T23:44:01.690Z,98.10
2019-05-09T23:46:27.843Z,97.90
2019-05-09T23:48:54.270Z,97.80
2019-05-09T23:51:21.618Z,97.70
2019-05-09T23:53:53.490Z,97.70
2019-05-09T23:56:38.659Z,97.10
2019-05-09T23:59:23.390Z,97.50
